createdAt,value
2023-01-10T00:01:51.582Z,100.00
2023-01-10T00:04:19.109Z,100.00
2023-01-10T00:06:46.682Z,100.00
2023-01-10T00:09:15.682Z,100.00
2023-01-10T00:12:00.526Z,100.00
2023-01-10T00:14:29.786Z,100.00
2023-01-10T00:16:57.615Z,100.00
2023-01-10T00:19:25.179Z,100.00
2023-01-10T00:21:54.918Z,100.00
2023-01-10T00:24:23.959Z,100.00
2023-01-10T00:26:52.614Z,100.00
2023-01-10T00:29:20.385Z,100.00
2023-01-10T00:31:48.269Z,100.00
2023-01-10T00:34:16.067Z,100.00
2023-01-10T00:36:45.508Z,100.00
2023-01-10T00:39:13.783Z,100.00
2023-01-10T00:42:00.069Z,100.00
2023-01-10T00:44:27.651Z,100.00
2023-01-10T00:46:55.599Z,100.00
2023-01-10T00:49:23.279Z,100.00
2023-01-10T00:51:50.903Z,100.00
2023-01-10T00:54:18.538Z,100.00
2023-01-10T00:56:47.393Z,100.00
2023-01-10T00:59:14.961Z,100.00
2023-01-10T01:01:42.673Z,100.00
2023-01-10T01:04:10.238Z,100.00
2023-01-10T01:06:40.310Z,100.00
2023-01-10T01:09:10.752Z,100.00
2023-01-10T01:11:40.370Z,100.00
2023-01-10T01:14:10.159Z,100.00
2023-01-10T01:16:37.980Z,100.00
2023-01-10T01:19:06.245Z,100.00
2023-01-10T01:21:34.422Z,100.00
2023-01-10T01:24:02.617Z,100.00
2023-01-10T01:26:35.250Z,100.00
2023-01-10T01:29:03.351Z,100.00
2023-01-10T01:43:34.480Z,100.00
2023-01-10T01:46:05.764Z,100.00
2023-01-10T01:48:36.833Z,100.00
2023-01-10T01:51:09.521Z,100.00
2023-01-10T01:53:42.339Z,100.00
2023-01-10T01:56:13.776Z,100.00
2023-01-10T01:58:46.847Z,100.00
2023-01-10T02:01:20.111Z,100.00
2023-01-10T02:29:39.028Z,100.00
2023-01-10T02:32:17.171Z,100.00
2023-01-10T02:34:57.405Z,100.00
2023-01-10T02:37:37.502Z,100.00
2023-01-10T02:40:09.666Z,100.00
2023-01-10T02:42:44.411Z,100.00
2023-01-10T02:45:16.119Z,100.00
2023-01-10T02:47:47.746Z,100.00
2023-01-10T02:50:30.877Z,100.00
2023-01-10T02:53:00.524Z,100.00
2023-01-10T02:55:36.658Z,100.00
2023-01-10T02:58:07.635Z,100.00
2023-01-10T03:00:42.407Z,100.00
2023-01-10T03:03:15.409Z,100.00
2023-01-10T03:05:53.607Z,100.00
2023-01-10T03:08:27.895Z,100.00
2023-01-10T03:10:58.209Z,100.00
2023-01-10T03:13:28.534Z,100.00
2023-01-10T03:15:58.178Z,100.00
2023-01-10T03:18:31.900Z,100.00
2023-01-10T03:21:00.904Z,100.00
2023-01-10T03:23:28.901Z,100.00
2023-01-10T03:25:56.940Z,100.00
2023-01-10T03:28:27.623Z,100.00
2023-01-10T03:30:59.093Z,100.00
2023-01-10T03:33:30.852Z,100.00
2023-01-10T03:36:10.350Z,100.00
2023-01-10T03:38:43.271Z,100.00
2023-01-10T03:41:14.158Z,100.00
2023-01-10T03:44:03.679Z,100.00
2023-01-10T03:46:37.277Z,100.00
2023-01-10T03:49:07.107Z,100.00
2023-01-10T03:51:34.887Z,100.00
2023-01-10T03:54:03.282Z,100.00
2023-01-10T03:56:30.925Z,100.00
2023-01-10T03:58:58.619Z,100.00
2023-01-10T04:01:27.162Z,100.00
2023-01-10T04:03:54.836Z,100.00
2023-01-10T04:06:23.749Z,100.00
2023-01-10T04:08:51.304Z,100.00
2023-01-10T04:11:18.853Z,100.00
2023-01-10T04:13:46.521Z,100.00
2023-01-10T04:16:14.354Z,100.00
2023-01-10T04:18:41.978Z,100.00
2023-01-10T04:21:09.604Z,100.00
2023-01-10T04:23:38.460Z,100.00
2023-01-10T04:26:06.433Z,100.00
2023-01-10T04:28:34.107Z,100.00
2023-01-10T04:31:02.505Z,100.00
2023-01-10T04:33:30.761Z,100.00
2023-01-10T04:35:58.807Z,100.00
2023-01-10T04:38:26.791Z,100.00
2023-01-10T04:40:56.258Z,100.00
2023-01-10T04:43:24.568Z,100.00
2023-01-10T04:45:52.353Z,100.00
2023-01-10T04:48:20.339Z,100.00
2023-01-10T04:50:50.787Z,100.00
2023-01-10T04:53:18.840Z,100.00
2023-01-10T04:55:46.995Z,100.00
2023-01-10T04:58:16.341Z,100.00
2023-01-10T05:00:44.311Z,100.00
2023-01-10T05:03:12.174Z,100.00
2023-01-10T05:05:40.026Z,100.00
2023-01-10T05:08:08.093Z,100.00
2023-01-10T05:10:38.702Z,100.00
2023-01-10T05:13:06.884Z,100.00
2023-01-10T05:15:36.617Z,100.00
2023-01-10T05:18:04.898Z,100.00
2023-01-10T05:20:32.993Z,100.00
2023-01-10T05:23:01.241Z,100.00
2023-01-10T05:25:29.453Z,100.00
2023-01-10T05:28:01.185Z,100.00
2023-01-10T05:30:29.503Z,100.00
2023-01-10T05:32:58.866Z,100.00
2023-01-10T05:35:27.203Z,100.00
2023-01-10T05:37:55.493Z,100.00
2023-01-10T05:40:23.898Z,100.00
2023-01-10T05:42:51.961Z,100.00
2023-01-10T05:45:20.019Z,100.00
2023-01-10T05:47:47.757Z,100.00
2023-01-10T05:50:19.025Z,100.00
2023-01-10T05:52:46.882Z,100.00
2023-01-10T05:55:14.876Z,100.00
2023-01-10T05:57:42.562Z,100.00
2023-01-10T06:00:11.842Z,100.00
2023-01-10T06:02:39.436Z,100.00
2023-01-10T06:05:07.749Z,100.00
2023-01-10T06:07:36.727Z,100.00
2023-01-10T06:10:04.583Z,100.00
2023-01-10T06:12:32.321Z,100.00
2023-01-10T06:15:00.062Z,100.00
2023-01-10T06:17:27.737Z,100.00
2023-01-10T06:19:55.243Z,100.00
2023-01-10T06:22:22.856Z,100.00
2023-01-10T06:24:51.731Z,100.00
2023-01-10T06:27:19.278Z,100.00
2023-01-10T06:29:49.098Z,100.00
2023-01-10T06:32:16.887Z,100.00
2023-01-10T06:34:44.589Z,100.00
2023-01-10T06:37:12.200Z,100.00
2023-01-10T06:39:39.850Z,100.00
2023-01-10T06:42:08.792Z,100.00
2023-01-10T06:44:36.303Z,100.00
2023-01-10T06:47:04.078Z,100.00
2023-01-10T06:49:31.703Z,100.00
2023-01-10T06:51:59.281Z,100.00
2023-01-10T06:54:26.917Z,100.00
2023-01-10T06:56:54.772Z,100.00
2023-01-10T06:59:23.661Z,100.00
2023-01-10T07:01:51.587Z,100.00
2023-01-10T07:04:19.173Z,100.00
2023-01-10T07:06:46.684Z,100.00
2023-01-10T07:09:14.249Z,100.00
2023-01-10T07:11:41.739Z,100.00
2023-01-10T07:14:09.842Z,100.00
2023-01-10T07:16:38.888Z,100.00
2023-01-10T07:19:06.464Z,100.00
2023-01-10T07:21:34.066Z,100.00
2023-01-10T07:24:02.832Z,100.00
2023-01-10T07:26:30.627Z,100.00
2023-01-10T07:28:58.141Z,100.00
2023-01-10T07:31:26.037Z,100.00
2023-01-10T07:33:55.090Z,100.00
2023-01-10T07:36:23.328Z,100.00
2023-01-10T07:38:50.820Z,100.00
2023-01-10T07:41:18.422Z,100.00
2023-01-10T07:43:45.861Z,100.00
2023-01-10T07:46:13.512Z,100.00
2023-01-10T07:48:42.066Z,100.00
2023-01-10T07:51:10.887Z,100.00
2023-01-10T07:53:39.220Z,100.00
2023-01-10T07:56:07.540Z,100.00
2023-01-10T07:58:35.283Z,100.00
2023-01-10T08:01:04.556Z,100.00
2023-01-10T08:03:33.075Z,100.00
2023-01-10T08:06:01.302Z,100.00
2023-01-10T08:08:30.628Z,100.00
2023-01-10T08:10:59.524Z,100.00
2023-01-10T08:13:27.304Z,100.00
2023-01-10T08:15:54.967Z,100.00
2023-01-10T08:18:23.756Z,100.00
2023-01-10T08:20:52.046Z,100.00
2023-01-10T08:23:20.060Z,100.00
2023-01-10T08:25:49.086Z,100.00
2023-01-10T08:28:16.708Z,100.00
2023-01-10T08:30:44.439Z,100.00
2023-01-10T08:33:12.535Z,100.00
2023-01-10T08:35:41.523Z,100.00
2023-01-10T08:38:09.537Z,100.00
2023-01-10T08:40:37.424Z,100.00
2023-01-10T08:43:07.990Z,100.00
2023-01-10T08:45:35.913Z,99.75
2023-01-10T08:48:05.510Z,99.94
2023-01-10T08:50:33.209Z,100.00
2023-01-10T08:53:01.389Z,100.00
2023-01-10T08:55:30.930Z,100.00
2023-01-10T08:58:00.345Z,99.87
2023-01-10T09:00:29.477Z,100.00
2023-01-10T09:02:57.151Z,100.00
2023-01-10T09:05:28.202Z,99.92
2023-01-10T09:07:59.724Z,99.53
2023-01-10T09:10:27.657Z,99.17
2023-01-10T09:12:59.719Z,98.58
2023-01-10T09:15:30.675Z,99.49
2023-01-10T09:17:59.855Z,99.15
2023-01-10T09:20:28.520Z,97.81
2023-01-10T09:22:56.697Z,98.05
2023-01-10T09:25:24.758Z,99.29
2023-01-10T09:27:57.430Z,100.00
2023-01-10T09:30:25.264Z,100.00
2023-01-10T09:32:54.840Z,99.96
2023-01-10T09:35:23.013Z,100.00
2023-01-10T09:37:50.858Z,100.00
2023-01-10T09:40:21.046Z,100.00
2023-01-10T09:42:57.364Z,100.00
2023-01-10T09:45:33.700Z,100.00
2023-01-10T09:48:04.671Z,99.72
2023-01-10T09:50:36.943Z,98.60
2023-01-10T09:53:07.227Z,99.12
2023-01-10T09:55:37.479Z,98.30
2023-01-10T09:58:08.204Z,98.01
2023-01-10T10:00:41.076Z,98.37
2023-01-10T10:03:21.889Z,98.38
2023-01-10T10:05:54.130Z,98.16
2023-01-10T10:08:24.830Z,98.95
2023-01-10T10:11:00.153Z,97.48
2023-01-10T10:13:36.085Z,96.62
2023-01-10T10:16:09.598Z,96.71
2023-01-10T10:18:46.538Z,95.90
2023-01-10T10:21:19.648Z,95.03
2023-01-10T10:23:57.782Z,95.26
2023-01-10T10:26:30.044Z,94.54
2023-01-10T10:29:08.594Z,94.41
2023-01-10T10:31:49.682Z,94.21
2023-01-10T10:34:24.655Z,95.09
2023-01-10T10:36:54.321Z,94.44
2023-01-10T10:39:25.393Z,94.45
2023-01-10T10:41:54.715Z,95.03
2023-01-10T10:44:38.249Z,94.83
2023-01-10T10:47:12.449Z,95.69
2023-01-10T10:49:44.890Z,94.58
2023-01-10T10:52:18.008Z,95.30
2023-01-10T10:54:47.721Z,95.13
2023-01-10T10:57:15.429Z,93.31
2023-01-10T10:59:49.312Z,92.98
2023-01-10T11:02:26.755Z,93.27
2023-01-10T11:04:58.689Z,92.38
2023-01-10T11:07:27.947Z,91.72
2023-01-10T11:10:14.189Z,92.15
2023-01-10T11:12:45.108Z,92.07
2023-01-10T11:15:12.670Z,92.13
2023-01-10T11:17:41.354Z,91.79
2023-01-10T11:20:16.044Z,90.84
2023-01-10T11:22:47.454Z,91.79
2023-01-10T11:25:17.166Z,91.91
2023-01-10T11:27:47.958Z,92.02
2023-01-10T11:30:19.397Z,91.66
2023-01-10T11:32:51.034Z,91.42
2023-01-10T11:35:22.304Z,92.83
2023-01-10T11:38:00.580Z,91.23
2023-01-10T11:40:28.924Z,90.51
2023-01-10T11:42:59.307Z,90.97
2023-01-10T11:45:32.456Z,91.33
2023-01-10T11:48:07.187Z,90.78
2023-01-10T11:50:38.545Z,91.34
2023-01-10T11:53:07.738Z,91.16
2023-01-10T11:55:37.547Z,91.07
2023-01-10T11:58:07.519Z,89.10
2023-01-10T12:00:41.296Z,89.45
2023-01-10T12:03:26.737Z,89.93
2023-01-10T12:05:58.669Z,90.03
2023-01-10T12:08:28.990Z,90.11
2023-01-10T12:11:03.105Z,88.31
2023-01-10T12:13:32.140Z,89.22
2023-01-10T12:16:18.803Z,88.30
2023-01-10T12:18:46.781Z,89.16
2023-01-10T12:21:17.511Z,89.48
2023-01-10T12:23:46.292Z,87.98
2023-01-10T12:26:14.426Z,87.85
2023-01-10T12:28:44.563Z,87.74
2023-01-10T12:31:14.089Z,88.84
2023-01-10T12:33:46.530Z,87.87
2023-01-10T12:36:24.652Z,87.75
2023-01-10T12:39:04.701Z,86.79
2023-01-10T12:41:57.366Z,87.04
2023-01-10T12:44:28.134Z,87.97
2023-01-10T12:47:07.208Z,86.50
2023-01-10T12:49:40.817Z,87.05
2023-01-10T12:52:16.049Z,87.60
2023-01-10T12:54:47.023Z,87.54
2023-01-10T12:57:22.946Z,87.38
2023-01-10T12:59:50.563Z,87.63
2023-01-10T13:02:20.062Z,88.04
2023-01-10T13:04:51.347Z,87.48
2023-01-10T13:07:20.919Z,88.52
2023-01-10T13:09:49.023Z,88.99
2023-01-10T13:12:21.522Z,85.73
2023-01-10T13:14:52.610Z,87.29
2023-01-10T13:17:29.331Z,86.90
2023-01-10T13:20:19.267Z,88.05
2023-01-10T13:22:51.229Z,87.37
2023-01-10T13:25:21.657Z,86.64
2023-01-10T13:27:56.016Z,87.03
2023-01-10T13:30:27.158Z,86.12
2023-01-10T13:33:00.674Z,86.42
2023-01-10T13:35:29.376Z,84.33
2023-01-10T13:37:58.580Z,86.69
2023-01-10T13:40:28.229Z,85.88
2023-01-10T13:43:33.370Z,87.22
2023-01-10T13:46:38.955Z,87.69
2023-01-10T13:49:28.011Z,87.96
2023-01-10T13:52:38.456Z,87.89
2023-01-10T13:55:29.162Z,86.36
2023-01-10T13:57:59.098Z,86.84
2023-01-10T14:01:12.211Z,86.88
2023-01-10T14:03:51.085Z,86.48
2023-01-10T14:06:37.827Z,87.36
2023-01-10T14:09:28.727Z,86.75
2023-01-10T14:12:00.192Z,86.98
2023-01-10T14:14:29.337Z,85.71
2023-01-10T14:16:57.842Z,87.04
2023-01-10T14:19:28.894Z,87.08
2023-01-10T14:21:58.427Z,86.67
2023-01-10T14:24:28.663Z,86.33
2023-01-10T14:26:59.557Z,86.59
2023-01-10T14:29:31.567Z,87.05
2023-01-10T14:32:00.441Z,87.56
2023-01-10T14:34:29.350Z,87.35
2023-01-10T14:36:59.580Z,87.64
2023-01-10T14:39:27.411Z,86.69
2023-01-10T14:41:59.635Z,86.25
2023-01-10T14:44:32.031Z,87.16
2023-01-10T14:47:02.724Z,87.29
2023-01-10T14:49:33.031Z,86.65
2023-01-10T14:52:14.392Z,87.57
2023-01-10T14:54:41.914Z,88.14
2023-01-10T14:57:20.703Z,86.71
2023-01-10T14:59:48.630Z,87.00
2023-01-10T15:02:22.151Z,88.18
2023-01-10T15:04:56.467Z,87.94
2023-01-10T15:07:25.290Z,87.99
2023-01-10T15:09:54.262Z,87.49
2023-01-10T15:12:24.636Z,87.59
2023-01-10T15:14:58.908Z,87.55
2023-01-10T15:17:27.484Z,87.46
2023-01-10T15:19:55.509Z,87.64
2023-01-10T15:22:28.774Z,87.52
2023-01-10T15:25:00.832Z,87.59
2023-01-10T15:27:30.415Z,87.53
2023-01-10T15:29:59.102Z,87.47
2023-01-10T15:32:29.848Z,88.09
2023-01-10T15:34:58.056Z,87.43
2023-01-10T15:37:27.079Z,88.04
2023-01-10T15:39:55.640Z,86.93
2023-01-10T15:42:23.740Z,87.85
2023-01-10T15:44:56.170Z,87.41
2023-01-10T15:47:42.254Z,86.98
2023-01-10T15:50:20.333Z,86.79
2023-01-10T15:52:48.930Z,87.52
2023-01-10T15:55:37.534Z,87.54
2023-01-10T15:58:05.591Z,87.14
2023-01-10T16:00:34.514Z,86.84
2023-01-10T16:03:02.097Z,86.15
2023-01-10T16:05:29.638Z,86.27
2023-01-10T16:07:57.292Z,86.93
2023-01-10T16:10:27.351Z,87.13
2023-01-10T16:13:28.795Z,86.95
2023-01-10T16:16:01.002Z,86.54
2023-01-10T16:18:28.869Z,85.84
2023-01-10T16:20:58.975Z,86.01
2023-01-10T16:23:30.173Z,86.02
2023-01-10T16:25:59.804Z,86.40
2023-01-10T16:28:30.797Z,85.36
2023-01-10T16:30:59.615Z,86.08
2023-01-10T16:33:27.794Z,86.15
2023-01-10T16:35:56.859Z,85.43
2023-01-10T16:38:25.657Z,84.79
2023-01-10T16:40:55.101Z,85.48
2023-01-10T16:43:21.813Z,85.40
2023-01-10T16:45:51.167Z,85.39
2023-01-10T16:48:21.506Z,85.21
2023-01-10T16:50:49.777Z,84.67
2023-01-10T16:53:18.923Z,84.74
2023-01-10T16:55:48.487Z,84.72
2023-01-10T16:58:17.290Z,84.22
2023-01-10T17:00:46.984Z,83.71
2023-01-10T17:03:17.752Z,83.59
2023-01-10T17:05:46.863Z,84.68
2023-01-10T17:08:17.430Z,83.25
2023-01-10T17:10:45.693Z,84.29
2023-01-10T17:13:13.384Z,83.54
2023-01-10T17:15:40.840Z,83.44
2023-01-10T17:18:08.273Z,82.41
2023-01-10T17:20:35.756Z,82.45
2023-01-10T17:23:04.519Z,82.67
2023-01-10T17:25:31.974Z,82.87
2023-01-10T17:27:59.419Z,82.83
2023-01-10T17:30:27.081Z,82.19
2023-01-10T17:32:54.647Z,82.19
2023-01-10T17:35:26.773Z,82.94
2023-01-10T17:37:54.274Z,82.90
2023-01-10T17:40:23.087Z,83.06
2023-01-10T17:42:50.594Z,81.74
2023-01-10T17:45:19.925Z,81.79
2023-01-10T17:47:47.426Z,82.21
2023-01-10T17:50:15.571Z,83.06
2023-01-10T17:52:43.044Z,84.27
2023-01-10T17:55:10.876Z,84.36
2023-01-10T17:57:39.792Z,84.56
2023-01-10T18:00:08.601Z,84.35
2023-01-10T18:02:37.684Z,84.92
2023-01-10T18:05:05.859Z,85.27
2023-01-10T18:07:33.311Z,85.00
2023-01-10T18:10:00.791Z,84.38
2023-01-10T18:12:28.290Z,84.24
2023-01-10T18:14:57.172Z,84.64
2023-01-10T18:17:24.615Z,84.18
2023-01-10T18:19:52.119Z,85.14
2023-01-10T18:22:37.787Z,84.85
2023-01-10T18:25:06.271Z,84.08
2023-01-10T18:27:33.778Z,84.44
2023-01-10T18:30:03.056Z,83.79
2023-01-10T18:32:32.284Z,83.46
2023-01-10T18:35:00.555Z,83.68
2023-01-10T18:37:28.062Z,83.42
2023-01-10T18:39:55.496Z,83.70
2023-01-10T18:42:22.940Z,83.58
2023-01-10T18:44:50.403Z,83.25
2023-01-10T18:47:19.232Z,83.30
2023-01-10T18:49:47.603Z,83.51
2023-01-10T18:52:16.543Z,82.99
2023-01-10T18:54:44.011Z,83.09
2023-01-10T18:57:11.501Z,83.23
2023-01-10T18:59:39.515Z,82.97
2023-01-10T19:02:07.290Z,84.59
2023-01-10T19:04:36.118Z,85.68
2023-01-10T19:07:03.557Z,87.65
2023-01-10T19:09:31.035Z,88.30
2023-01-10T19:11:59.905Z,89.29
2023-01-10T19:14:27.408Z,90.62
2023-01-10T19:16:54.888Z,91.84
2023-01-10T19:19:22.453Z,93.05
2023-01-10T19:21:51.254Z,94.02
2023-01-10T19:24:22.112Z,95.21
2023-01-10T19:26:49.738Z,95.71
2023-01-10T19:29:20.165Z,97.28
2023-01-10T19:31:48.278Z,98.27
2023-01-10T19:34:16.343Z,98.50
2023-01-10T19:36:45.399Z,99.23
2023-01-10T19:39:14.764Z,99.22
2023-01-10T19:41:42.744Z,99.58
2023-01-10T19:44:12.652Z,99.68
2023-01-10T19:46:40.683Z,100.00
2023-01-10T19:49:08.842Z,100.00
2023-01-10T19:51:39.159Z,100.00
2023-01-10T19:54:07.866Z,100.00
2023-01-10T19:56:37.156Z,100.00
2023-01-10T19:59:04.826Z,100.00
2023-01-10T20:01:34.771Z,100.00
2023-01-10T20:04:06.359Z,100.00
2023-01-10T20:06:36.688Z,100.00
2023-01-10T20:09:04.418Z,100.00
2023-01-10T20:14:41.877Z,100.00
2023-01-10T20:17:10.182Z,100.00
2023-01-10T20:19:37.772Z,100.00
2023-01-10T20:22:05.441Z,100.00
2023-01-10T20:24:33.108Z,100.00
2023-01-10T20:27:04.457Z,100.00
2023-01-10T20:29:33.217Z,100.00
2023-01-10T20:32:02.517Z,100.00
2023-01-10T20:34:30.428Z,100.00
2023-01-10T20:36:58.014Z,100.00
2023-01-10T20:39:26.346Z,100.00
2023-01-10T20:41:53.882Z,100.00
2023-01-10T20:44:21.332Z,100.00
2023-01-10T20:46:48.927Z,100.00
2023-01-10T20:49:18.259Z,100.00
2023-01-10T20:51:46.321Z,100.00
2023-01-10T20:54:13.795Z,100.00
2023-01-10T20:56:41.587Z,100.00
2023-01-10T20:59:09.066Z,100.00
2023-01-10T21:01:36.622Z,100.00
2023-01-10T21:04:04.471Z,100.00
2023-01-10T21:06:33.998Z,100.00
2023-01-10T21:09:01.755Z,100.00
2023-01-10T21:11:29.401Z,100.00
2023-01-10T21:13:56.944Z,100.00
2023-01-10T21:16:25.303Z,100.00
2023-01-10T21:18:52.870Z,100.00
2023-01-10T21:21:23.268Z,100.00
2023-01-10T21:23:54.569Z,100.00
2023-01-10T21:26:22.935Z,100.00
2023-01-10T21:28:50.528Z,100.00
2023-01-10T21:31:19.186Z,100.00
2023-01-10T21:33:46.944Z,100.00
2023-01-10T21:36:14.443Z,100.00
2023-01-10T21:38:42.315Z,100.00
2023-01-10T21:41:13.916Z,100.00
2023-01-10T21:43:44.134Z,100.00
2023-01-10T21:46:12.135Z,100.00
2023-01-10T21:48:39.709Z,100.00
2023-01-10T21:51:07.283Z,100.00
2023-01-10T21:53:35.027Z,100.00
2023-01-10T21:56:02.616Z,100.00
2023-01-10T21:58:31.525Z,100.00
2023-01-10T22:00:59.960Z,100.00
2023-01-10T22:03:27.813Z,100.00
2023-01-10T22:05:55.346Z,100.00
2023-01-10T22:08:22.838Z,100.00
2023-01-10T22:10:50.354Z,100.00
2023-01-10T22:13:17.864Z,100.00
2023-01-10T22:15:46.682Z,100.00
2023-01-10T22:18:14.105Z,100.00
2023-01-10T22:20:44.877Z,100.00
2023-01-10T22:23:12.336Z,100.00
2023-01-10T22:25:39.809Z,100.00
2023-01-10T22:28:07.278Z,100.00
2023-01-10T22:30:34.820Z,100.00
2023-01-10T22:33:03.718Z,100.00
2023-01-10T22:35:31.160Z,100.00
2023-01-10T22:37:58.626Z,100.00
2023-01-10T22:40:26.323Z,100.00
2023-01-10T22:42:54.453Z,100.00
2023-01-10T22:45:21.916Z,100.00
2023-01-10T22:47:50.018Z,100.00
2023-01-10T22:50:19.474Z,100.00
2023-01-10T22:52:48.984Z,100.00
2023-01-10T22:55:16.815Z,100.00
2023-01-10T22:57:47.997Z,100.00
2023-01-10T23:00:16.369Z,100.00
2023-01-10T23:02:43.952Z,100.00
2023-01-10T23:05:11.442Z,100.00
2023-01-10T23:07:40.224Z,100.00
2023-01-10T23:10:20.542Z,99.72
2023-01-10T23:12:55.440Z,99.62
2023-01-10T23:15:22.936Z,99.11
2023-01-10T23:17:50.442Z,98.94
2023-01-10T23:20:18.342Z,98.62
2023-01-10T23:22:47.149Z,98.45
2023-01-10T23:25:14.580Z,97.81
2023-01-10T23:27:42.083Z,98.30
2023-01-10T23:30:11.476Z,98.69
2023-01-10T23:32:38.929Z,98.69
2023-01-10T23:35:06.936Z,98.67
2023-01-10T23:37:34.367Z,98.92
2023-01-10T23:40:03.329Z,99.48
2023-01-10T23:42:30.821Z,98.86
2023-01-10T23:44:58.273Z,98.70
2023-01-10T23:47:25.744Z,98.30
2023-01-10T23:49:53.194Z,100.00
2023-01-10T23:52:20.663Z,100.00
2023-01-10T23:54:48.266Z,100.00
2023-01-10T23:57:17.817Z,100.00
2023-01-10T23:59:45.674Z,100.00
